Iron City, Colorado
Current Conditions -  °F | °C
As of 4:55 AM on Wednesday 28 Jan 2015 (Local Time) from K7BM Reporting Station
Broken Clouds Broken Clouds  
Wind Chill: 23°   Ceiling: 2900
Heat Index: 36°   Visibility: 10mi
Dew Point: 19°   Wind: 28mph
Humidity: 52%   Direction: 280°W
Pressure: 30.18"   Gusts: 45mph
Location:  38.7194°N, 106.276°W
Report Text: K7BM 281155Z AUTO 28024G39KT 10SM SCT021 BKN029 02/M07 A3018 RMK AO2
Loading
Personal Weather Stations






























Interactive Weather Map New forecast layout! Learn more

10-Day Weather Forecast

Advertisements
Track Severe Weather on mobile